sensor_id;sensor_type;location;lat;lon;timestamp;pressure;altitude;pressure_sealevel;temperature;humidity
48027;BME280;50714;49.208;5.364;2024-02-16T00:09:11;99055.84;;;12.55;100.00
48027;BME280;50714;49.208;5.364;2024-02-16T00:19:12;99047.94;;;12.53;100.00
48027;BME280;50714;49.208;5.364;2024-02-16T00:29:12;99037.81;;;12.49;100.00
48027;BME280;50714;49.208;5.364;2024-02-16T00:39:13;99030.81;;;12.41;100.00
48027;BME280;50714;49.208;5.364;2024-02-16T00:49:13;99026.91;;;12.37;100.00
48027;BME280;50714;49.208;5.364;2024-02-16T00:59:14;99030.44;;;12.38;99.70
48027;BME280;50714;49.208;5.364;2024-02-16T01:09:15;99033.75;;;12.40;98.46
48027;BME280;50714;49.208;5.364;2024-02-16T01:19:15;99030.22;;;12.39;97.38
48027;BME280;50714;49.208;5.364;2024-02-16T01:29:15;99032.56;;;12.36;96.21
48027;BME280;50714;49.208;5.364;2024-02-16T01:39:16;99046.75;;;12.31;95.77
48027;BME280;50714;49.208;5.364;2024-02-16T01:49:16;99058.84;;;12.28;95.13
48027;BME280;50714;49.208;5.364;2024-02-16T01:59:17;99047.44;;;12.26;95.33
48027;BME280;50714;49.208;5.364;2024-02-16T02:09:17;99054.97;;;12.24;94.16
48027;BME280;50714;49.208;5.364;2024-02-16T02:19:17;99044.19;;;12.18;94.15
48027;BME280;50714;49.208;5.364;2024-02-16T02:29:18;99041.56;;;12.11;93.66
48027;BME280;50714;49.208;5.364;2024-02-16T02:39:18;99037.03;;;12.05;93.78
48027;BME280;50714;49.208;5.364;2024-02-16T02:49:19;99046.69;;;12.01;93.22
48027;BME280;50714;49.208;5.364;2024-02-16T02:59:19;99045.06;;;11.93;92.40
48027;BME280;50714;49.208;5.364;2024-02-16T03:09:19;99051.75;;;11.91;92.86
48027;BME280;50714;49.208;5.364;2024-02-16T03:19:20;99051.75;;;11.91;92.32
48027;BME280;50714;49.208;5.364;2024-02-16T03:29:20;99048.63;;;11.94;92.33
48027;BME280;50714;49.208;5.364;2024-02-16T03:39:20;99049.44;;;11.94;91.60
48027;BME280;50714;49.208;5.364;2024-02-16T03:49:20;99056.94;;;11.92;92.09
48027;BME280;50714;49.208;5.364;2024-02-16T03:59:21;99069.41;;;11.93;91.70
48027;BME280;50714;49.208;5.364;2024-02-16T04:09:21;99081.50;;;11.91;91.73
48027;BME280;50714;49.208;5.364;2024-02-16T04:19:22;99084.25;;;11.84;91.35
48027;BME280;50714;49.208;5.364;2024-02-16T04:29:22;99087.88;;;11.78;91.11
48027;BME280;50714;49.208;5.364;2024-02-16T04:39:23;99100.56;;;11.71;91.81
48027;BME280;50714;49.208;5.364;2024-02-16T04:49:23;99112.47;;;11.63;92.09
48027;BME280;50714;49.208;5.364;2024-02-16T04:59:23;99116.66;;;11.59;91.77
48027;BME280;50714;49.208;5.364;2024-02-16T05:09:24;99131.59;;;11.62;91.89
48027;BME280;50714;49.208;5.364;2024-02-16T05:19:26;99134.50;;;11.67;92.16
48027;BME280;50714;49.208;5.364;2024-02-16T05:29:26;99140.13;;;11.66;92.00
48027;BME280;50714;49.208;5.364;2024-02-16T05:39:27;99132.41;;;11.69;91.53
48027;BME280;50714;49.208;5.364;2024-02-16T05:49:31;99136.59;;;11.65;92.27
48027;BME280;50714;49.208;5.364;2024-02-16T05:59:31;99142.00;;;11.65;92.74
48027;BME280;50714;49.208;5.364;2024-02-16T06:09:32;99144.28;;;11.61;93.71
48027;BME280;50714;49.208;5.364;2024-02-16T06:19:35;99147.81;;;11.62;93.26
48027;BME280;50714;49.208;5.364;2024-02-16T06:29:35;99159.44;;;11.69;93.88
48027;BME280;50714;49.208;5.364;2024-02-16T06:39:36;99167.09;;;11.72;94.47
48027;BME280;50714;49.208;5.364;2024-02-16T06:49:36;99190.22;;;11.68;95.94
48027;BME280;50714;49.208;5.364;2024-02-16T06:59:36;99205.38;;;11.69;96.28
48027;BME280;50714;49.208;5.364;2024-02-16T07:09:37;99230.53;;;11.76;96.68
48027;BME280;50714;49.208;5.364;2024-02-16T07:19:39;99250.63;;;11.87;98.58
48027;BME280;50714;49.208;5.364;2024-02-16T07:29:39;99271.22;;;11.88;98.66
48027;BME280;50714;49.208;5.364;2024-02-16T07:39:40;99282.19;;;12.00;99.58
48027;BME280;50714;49.208;5.364;2024-02-16T07:49:41;99294.53;;;12.20;99.41
48027;BME280;50714;49.208;5.364;2024-02-16T07:59:41;99299.56;;;12.42;98.82
48027;BME280;50714;49.208;5.364;2024-02-16T08:09:46;99316.72;;;12.60;98.89
48027;BME280;50714;49.208;5.364;2024-02-16T08:19:52;99333.94;;;12.91;97.14
48027;BME280;50714;49.208;5.364;2024-02-16T08:29:53;99342.03;;;12.97;97.41
48027;BME280;50714;49.208;5.364;2024-02-16T08:39:54;99363.59;;;13.04;97.93
48027;BME280;50714;49.208;5.364;2024-02-16T08:49:54;99372.75;;;13.10;98.69
48027;BME280;50714;49.208;5.364;2024-02-16T08:59:54;99381.88;;;13.15;100.00
48027;BME280;50714;49.208;5.364;2024-02-16T09:09:56;99383.34;;;13.11;100.00
48027;BME280;50714;49.208;5.364;2024-02-16T09:19:57;99392.44;;;12.98;100.00
48027;BME280;50714;49.208;5.364;2024-02-16T09:29:57;99413.66;;;13.02;100.00
48027;BME280;50714;49.208;5.364;2024-02-16T09:39:57;99423.38;;;13.09;100.00
48027;BME280;50714;49.208;5.364;2024-02-16T09:49:58;99437.31;;;13.19;100.00
48027;BME280;50714;49.208;5.364;2024-02-16T09:59:58;99434.84;;;13.36;100.00
48027;BME280;50714;49.208;5.364;2024-02-16T10:09:59;99449.94;;;13.50;100.00
48027;BME280;50714;49.208;5.364;2024-02-16T10:19:59;99465.53;;;13.55;100.00
48027;BME280;50714;49.208;5.364;2024-02-16T10:30:07;99475.56;;;13.54;100.00
48027;BME280;50714;49.208;5.364;2024-02-16T10:40:11;99470.72;;;13.56;100.00
48027;BME280;50714;49.208;5.364;2024-02-16T10:50:13;99484.31;;;13.75;100.00
48027;BME280;50714;49.208;5.364;2024-02-16T11:00:15;99495.72;;;14.02;100.00
48027;BME280;50714;49.208;5.364;2024-02-16T11:10:17;99499.03;;;14.04;100.00
48027;BME280;50714;49.208;5.364;2024-02-16T11:20:17;99505.97;;;13.99;100.00
48027;BME280;50714;49.208;5.364;2024-02-16T11:30:19;99512.16;;;13.88;100.00
48027;BME280;50714;49.208;5.364;2024-02-16T11:40:19;99528.31;;;13.77;100.00
48027;BME280;50714;49.208;5.364;2024-02-16T11:50:20;99531.56;;;13.67;100.00
48027;BME280;50714;49.208;5.364;2024-02-16T12:00:20;99540.78;;;13.59;100.00
48027;BME280;50714;49.208;5.364;2024-02-16T12:10:24;99536.03;;;13.55;100.00
48027;BME280;50714;49.208;5.364;2024-02-16T12:20:25;99546.00;;;13.61;100.00
48027;BME280;50714;49.208;5.364;2024-02-16T12:30:25;99545.78;;;13.62;100.00
48027;BME280;50714;49.208;5.364;2024-02-16T12:40:25;99543.47;;;13.66;100.00
48027;BME280;50714;49.208;5.364;2024-02-16T12:50:26;99548.72;;;13.61;100.00
48027;BME280;50714;49.208;5.364;2024-02-16T13:00:27;99541.19;;;13.63;100.00
48027;BME280;50714;49.208;5.364;2024-02-16T13:10:28;99554.41;;;13.78;100.00
48027;BME280;50714;49.208;5.364;2024-02-16T13:20:28;99537.19;;;13.90;100.00
48027;BME280;50714;49.208;5.364;2024-02-16T13:30:29;99552.75;;;13.95;100.00
48027;BME280;50714;49.208;5.364;2024-02-16T13:40:30;99553.25;;;13.92;100.00
48027;BME280;50714;49.208;5.364;2024-02-16T13:50:30;99549.13;;;13.83;100.00
48027;BME280;50714;49.208;5.364;2024-02-16T14:00:30;99556.44;;;13.82;100.00
48027;BME280;50714;49.208;5.364;2024-02-16T14:10:31;99566.53;;;13.75;100.00
48027;BME280;50714;49.208;5.364;2024-02-16T14:20:34;99579.09;;;13.70;100.00
48027;BME280;50714;49.208;5.364;2024-02-16T14:30:35;99578.75;;;13.59;100.00
48027;BME280;50714;49.208;5.364;2024-02-16T14:40:35;99586.31;;;13.51;100.00
48027;BME280;50714;49.208;5.364;2024-02-16T14:50:36;99603.50;;;13.45;100.00
48027;BME280;50714;49.208;5.364;2024-02-16T15:00:36;99615.19;;;13.39;100.00
48027;BME280;50714;49.208;5.364;2024-02-16T15:10:37;99612.31;;;13.34;100.00
48027;BME280;50714;49.208;5.364;2024-02-16T15:20:37;99623.19;;;13.27;100.00
48027;BME280;50714;49.208;5.364;2024-02-16T15:30:38;99632.78;;;13.23;100.00
48027;BME280;50714;49.208;5.364;2024-02-16T15:40:38;99650.56;;;13.19;100.00
48027;BME280;50714;49.208;5.364;2024-02-16T15:50:38;99661.00;;;13.09;100.00
48027;BME280;50714;49.208;5.364;2024-02-16T16:00:41;99671.41;;;13.05;100.00
48027;BME280;50714;49.208;5.364;2024-02-16T16:10:41;99684.19;;;12.98;100.00
48027;BME280;50714;49.208;5.364;2024-02-16T16:20:42;99690.44;;;12.98;100.00
48027;BME280;50714;49.208;5.364;2024-02-16T16:30:43;99705.03;;;12.97;100.00
48027;BME280;50714;49.208;5.364;2024-02-16T16:40:44;99722.31;;;12.96;100.00
48027;BME280;50714;49.208;5.364;2024-02-16T16:50:44;99736.72;;;12.90;100.00
48027;BME280;50714;49.208;5.364;2024-02-16T17:00:44;99748.78;;;12.88;100.00
48027;BME280;50714;49.208;5.364;2024-02-16T17:10:45;99763.38;;;12.80;100.00
48027;BME280;50714;49.208;5.364;2024-02-16T17:20:46;99781.50;;;12.80;100.00
48027;BME280;50714;49.208;5.364;2024-02-16T17:30:47;99800.09;;;12.70;100.00
48027;BME280;50714;49.208;5.364;2024-02-16T17:40:48;99823.19;;;12.66;100.00
48027;BME280;50714;49.208;5.364;2024-02-16T17:50:48;99845.69;;;12.59;100.00
48027;BME280;50714;49.208;5.364;2024-02-16T18:00:49;99866.28;;;12.54;100.00
48027;BME280;50714;49.208;5.364;2024-02-16T18:10:49;99870.47;;;12.50;100.00
48027;BME280;50714;49.208;5.364;2024-02-16T18:20:50;99889.63;;;12.48;100.00
48027;BME280;50714;49.208;5.364;2024-02-16T18:30:50;99907.13;;;12.46;100.00
48027;BME280;50714;49.208;5.364;2024-02-16T18:40:50;99914.19;;;12.40;100.00
48027;BME280;50714;49.208;5.364;2024-02-16T18:50:51;99931.06;;;12.42;100.00
48027;BME280;50714;49.208;5.364;2024-02-16T19:00:51;99947.06;;;12.37;100.00
48027;BME280;50714;49.208;5.364;2024-02-16T19:10:51;99956.22;;;12.36;100.00
48027;BME280;50714;49.208;5.364;2024-02-16T19:20:53;99983.06;;;12.31;100.00
48027;BME280;50714;49.208;5.364;2024-02-16T19:30:53;99992.66;;;12.34;100.00
48027;BME280;50714;49.208;5.364;2024-02-16T19:40:54;99999.28;;;12.31;100.00
48027;BME280;50714;49.208;5.364;2024-02-16T19:50:55;100017.84;;;12.27;100.00
48027;BME280;50714;49.208;5.364;2024-02-16T20:00:55;100038.41;;;12.22;100.00
48027;BME280;50714;49.208;5.364;2024-02-16T20:10:55;100067.03;;;12.03;100.00
48027;BME280;50714;49.208;5.364;2024-02-16T20:20:56;100087.94;;;11.88;100.00
48027;BME280;50714;49.208;5.364;2024-02-16T20:30:56;100102.94;;;11.69;100.00
48027;BME280;50714;49.208;5.364;2024-02-16T20:41:03;100119.09;;;11.62;100.00
48027;BME280;50714;49.208;5.364;2024-02-16T20:51:04;100141.72;;;11.55;100.00
48027;BME280;50714;49.208;5.364;2024-02-16T21:01:04;100150.13;;;11.45;100.00
48027;BME280;50714;49.208;5.364;2024-02-16T21:11:05;100175.03;;;11.41;100.00
48027;BME280;50714;49.208;5.364;2024-02-16T21:21:05;100197.09;;;11.23;100.00
48027;BME280;50714;49.208;5.364;2024-02-16T21:31:06;100208.66;;;11.17;100.00
48027;BME280;50714;49.208;5.364;2024-02-16T21:41:10;100223.50;;;11.06;100.00
48027;BME280;50714;49.208;5.364;2024-02-16T21:51:10;100236.25;;;10.98;100.00
48027;BME280;50714;49.208;5.364;2024-02-16T22:01:11;100246.78;;;10.92;100.00
48027;BME280;50714;49.208;5.364;2024-02-16T22:11:12;100268.22;;;10.79;100.00
48027;BME280;50714;49.208;5.364;2024-02-16T22:21:13;100273.41;;;10.66;100.00
48027;BME280;50714;49.208;5.364;2024-02-16T22:31:14;100299.13;;;10.62;100.00
48027;BME280;50714;49.208;5.364;2024-02-16T22:41:14;100305.13;;;10.49;100.00
48027;BME280;50714;49.208;5.364;2024-02-16T22:51:17;100317.56;;;10.36;100.00
48027;BME280;50714;49.208;5.364;2024-02-16T23:01:17;100329.00;;;10.15;100.00
48027;BME280;50714;49.208;5.364;2024-02-16T23:11:17;100334.69;;;9.97;100.00
48027;BME280;50714;49.208;5.364;2024-02-16T23:21:18;100351.31;;;9.78;100.00
48027;BME280;50714;49.208;5.364;2024-02-16T23:31:18;100372.06;;;9.69;100.00
48027;BME280;50714;49.208;5.364;2024-02-16T23:41:22;100378.72;;;9.58;100.00
48027;BME280;50714;49.208;5.364;2024-02-16T23:51:23;100395.41;;;9.54;100.00
